首页
METAR-TAF:

METAR-TAF

机场 :

多倫多皮爾遜國際機場

多伦多, 安大略省, 加拿大

纬度: 43-40N, 经度: 079-38W, 海拔: 173米

当前天气观测

该预报发布于1小时和19分钟前的21:00 UTC
风速9节,风向北转东北,有时为16节阵风,在北转西北东北之间变化
温度 21°C
湿度 53%
气压 1015 hPa
能見度: 24.1公里
少量云层高于5500英尺
散云层高于16000英尺
多云层高于24000英尺

METAR: CYYZ 262100Z 03009G16KT 340V050 15SM FEW055 SCT160 BKN240 21/11 A2996 RMK CU1AC4CS3 CU TR SLP147 DENSITY ALT 1400FT

时间: 18:19 (22:19 UTC)

预报

该预报发布于1小时和41分钟前的20:38 UTC
预报有效从26日的 21点(UTC)到 27日的 24点(UTC)
风速12节,风向北转东北
能見度: 10公里
少量云层高于5000英尺
少量云层高于16000英尺
多云层高于25000英尺
从 27日的 0000点(UTC)
风速12节,风向
能見度: 10公里
少量云层高于3000英尺
成为
从 27日的 08点(UTC)到 27日的 10点(UTC)
风速7节,风向北转西北
从 27日的 1400点(UTC)
风速8节,风向
能見度: 10公里
少量云层高于2000英尺
从 27日的 1800点(UTC)
风速10节,风向
能見度: 10公里
多云层高于3000英尺

TAF: CYYZ 262038Z 2621/2724 03012KT P6SM FEW050 FEW160 BKN250 FM270000 36012KT P6SM FEW030 BECMG 2708/2710 33007KT FM271400 01008KT P6SM FEW020 FM271800 36010KT P6SM BKN030 RMK NXT FCST BY 270000Z

超过4000个机场的气象观测和天气预报(METAR&TAF报告)。

可查询的气象台以黄色和红色小点在地图上表示。

将鼠标移到小点上方,可查看气象台名称。

然后点击查看天气观测和预报。

如需切换地图:点击带黑十字的绿色按钮放大地图;点击带横线的绿色按钮缩小地图;或者点击绿色箭头查看邻近地区的地图。


METAR-TAF: